sensor_id;sensor_type;location;lat;lon;timestamp;P1;durP1;ratioP1;P2;durP2;ratioP2
635;SDS011;302;50.206;8.196;2022-11-06T00:02:18;13.15;;;11.80;;
635;SDS011;302;50.206;8.196;2022-11-06T00:04:43;14.07;;;12.57;;
635;SDS011;302;50.206;8.196;2022-11-06T00:07:08;24.13;;;13.93;;
635;SDS011;302;50.206;8.196;2022-11-06T00:09:33;15.00;;;13.52;;
635;SDS011;302;50.206;8.196;2022-11-06T00:11:58;14.73;;;13.27;;
635;SDS011;302;50.206;8.196;2022-11-06T00:14:23;14.57;;;13.07;;
635;SDS011;302;50.206;8.196;2022-11-06T00:16:48;16.87;;;13.47;;
635;SDS011;302;50.206;8.196;2022-11-06T00:19:14;17.03;;;14.50;;
635;SDS011;302;50.206;8.196;2022-11-06T00:21:39;14.00;;;12.20;;
635;SDS011;302;50.206;8.196;2022-11-06T00:24:05;16.03;;;13.97;;
635;SDS011;302;50.206;8.196;2022-11-06T00:26:31;15.70;;;14.10;;
635;SDS011;302;50.206;8.196;2022-11-06T00:28:56;15.77;;;14.10;;
635;SDS011;302;50.206;8.196;2022-11-06T00:31:23;14.57;;;13.07;;
635;SDS011;302;50.206;8.196;2022-11-06T00:33:48;17.15;;;14.63;;
635;SDS011;302;50.206;8.196;2022-11-06T00:36:17;16.63;;;14.90;;
635;SDS011;302;50.206;8.196;2022-11-06T00:38:43;17.65;;;14.45;;
635;SDS011;302;50.206;8.196;2022-11-06T00:41:10;19.00;;;16.23;;
635;SDS011;302;50.206;8.196;2022-11-06T00:43:35;20.88;;;15.63;;
635;SDS011;302;50.206;8.196;2022-11-06T00:48:26;19.50;;;16.87;;
635;SDS011;302;50.206;8.196;2022-11-06T00:50:51;18.87;;;16.87;;
635;SDS011;302;50.206;8.196;2022-11-06T00:53:17;18.60;;;16.70;;
635;SDS011;302;50.206;8.196;2022-11-06T00:55:42;18.87;;;17.00;;
635;SDS011;302;50.206;8.196;2022-11-06T00:58:07;19.50;;;17.30;;
635;SDS011;302;50.206;8.196;2022-11-06T01:00:32;20.00;;;17.30;;
635;SDS011;302;50.206;8.196;2022-11-06T01:02:57;22.90;;;18.03;;
635;SDS011;302;50.206;8.196;2022-11-06T01:05:22;21.33;;;18.10;;
635;SDS011;302;50.206;8.196;2022-11-06T01:07:47;20.40;;;17.80;;
635;SDS011;302;50.206;8.196;2022-11-06T01:10:13;22.93;;;20.47;;
635;SDS011;302;50.206;8.196;2022-11-06T01:12:39;21.63;;;19.38;;
635;SDS011;302;50.206;8.196;2022-11-06T01:15:04;21.93;;;18.50;;
635;SDS011;302;50.206;8.196;2022-11-06T01:17:29;18.57;;;16.67;;
635;SDS011;302;50.206;8.196;2022-11-06T01:19:54;19.58;;;17.52;;
635;SDS011;302;50.206;8.196;2022-11-06T01:22:20;20.77;;;17.35;;
635;SDS011;302;50.206;8.196;2022-11-06T01:24:45;20.50;;;17.20;;
635;SDS011;302;50.206;8.196;2022-11-06T01:27:10;18.53;;;15.90;;
635;SDS011;302;50.206;8.196;2022-11-06T01:29:35;18.93;;;17.03;;
635;SDS011;302;50.206;8.196;2022-11-06T01:32:01;18.93;;;17.00;;
635;SDS011;302;50.206;8.196;2022-11-06T01:34:26;17.43;;;15.60;;
635;SDS011;302;50.206;8.196;2022-11-06T01:36:51;18.07;;;16.27;;
635;SDS011;302;50.206;8.196;2022-11-06T01:39:16;18.53;;;16.43;;
635;SDS011;302;50.206;8.196;2022-11-06T01:41:46;19.13;;;16.20;;
635;SDS011;302;50.206;8.196;2022-11-06T01:46:55;18.70;;;16.80;;
635;SDS011;302;50.206;8.196;2022-11-06T01:49:20;16.07;;;14.40;;
635;SDS011;302;50.206;8.196;2022-11-06T01:51:49;16.87;;;14.70;;
635;SDS011;302;50.206;8.196;2022-11-06T01:54:16;16.02;;;14.43;;
635;SDS011;302;50.206;8.196;2022-11-06T01:56:42;18.13;;;13.73;;
635;SDS011;302;50.206;8.196;2022-11-06T01:59:08;14.35;;;12.85;;
635;SDS011;302;50.206;8.196;2022-11-06T02:01:37;16.67;;;13.63;;
635;SDS011;302;50.206;8.196;2022-11-06T02:04:09;15.27;;;12.70;;
635;SDS011;302;50.206;8.196;2022-11-06T02:06:36;14.32;;;12.85;;
635;SDS011;302;50.206;8.196;2022-11-06T02:09:02;14.63;;;13.13;;
635;SDS011;302;50.206;8.196;2022-11-06T02:11:27;16.43;;;14.77;;
635;SDS011;302;50.206;8.196;2022-11-06T02:13:57;15.37;;;13.30;;
635;SDS011;302;50.206;8.196;2022-11-06T02:16:32;16.40;;;13.85;;
635;SDS011;302;50.206;8.196;2022-11-06T02:19:11;15.65;;;14.05;;
635;SDS011;302;50.206;8.196;2022-11-06T02:22:27;15.90;;;14.40;;
635;SDS011;302;50.206;8.196;2022-11-06T02:27:12;16.90;;;15.10;;
635;SDS011;302;50.206;8.196;2022-11-06T02:29:44;18.25;;;14.90;;
635;SDS011;302;50.206;8.196;2022-11-06T02:32:13;15.88;;;14.27;;
635;SDS011;302;50.206;8.196;2022-11-06T02:34:39;17.38;;;15.65;;
635;SDS011;302;50.206;8.196;2022-11-06T02:37:07;15.75;;;14.15;;
635;SDS011;302;50.206;8.196;2022-11-06T02:39:34;15.43;;;13.93;;
635;SDS011;302;50.206;8.196;2022-11-06T02:42:01;15.93;;;13.73;;
635;SDS011;302;50.206;8.196;2022-11-06T02:44:27;16.93;;;15.13;;
635;SDS011;302;50.206;8.196;2022-11-06T02:46:56;16.00;;;14.40;;
635;SDS011;302;50.206;8.196;2022-11-06T02:49:35;17.48;;;14.95;;
635;SDS011;302;50.206;8.196;2022-11-06T02:52:10;16.30;;;14.15;;
635;SDS011;302;50.206;8.196;2022-11-06T02:54:37;17.42;;;13.52;;
635;SDS011;302;50.206;8.196;2022-11-06T02:57:06;16.15;;;14.48;;
635;SDS011;302;50.206;8.196;2022-11-06T02:59:33;14.82;;;13.32;;
635;SDS011;302;50.206;8.196;2022-11-06T03:02:01;15.55;;;12.88;;
635;SDS011;302;50.206;8.196;2022-11-06T03:04:37;14.73;;;13.32;;
635;SDS011;302;50.206;8.196;2022-11-06T03:07:26;15.20;;;13.75;;
635;SDS011;302;50.206;8.196;2022-11-06T03:09:49;17.88;;;14.35;;
635;SDS011;302;50.206;8.196;2022-11-06T03:12:23;17.27;;;15.10;;
635;SDS011;302;50.206;8.196;2022-11-06T03:14:52;16.63;;;14.93;;
635;SDS011;302;50.206;8.196;2022-11-06T03:17:22;15.05;;;13.45;;
635;SDS011;302;50.206;8.196;2022-11-06T03:19:55;21.85;;;13.95;;
635;SDS011;302;50.206;8.196;2022-11-06T03:27:39;14.07;;;12.65;;
635;SDS011;302;50.206;8.196;2022-11-06T03:30:09;15.38;;;13.77;;
635;SDS011;302;50.206;8.196;2022-11-06T03:32:39;13.45;;;11.73;;
635;SDS011;302;50.206;8.196;2022-11-06T03:35:12;15.52;;;13.27;;
635;SDS011;302;50.206;8.196;2022-11-06T03:37:42;17.63;;;12.98;;
635;SDS011;302;50.206;8.196;2022-11-06T03:40:12;14.70;;;12.70;;
635;SDS011;302;50.206;8.196;2022-11-06T03:42:38;14.20;;;12.75;;
635;SDS011;302;50.206;8.196;2022-11-06T03:45:12;16.20;;;13.80;;
635;SDS011;302;50.206;8.196;2022-11-06T03:47:46;15.82;;;12.73;;
635;SDS011;302;50.206;8.196;2022-11-06T03:50:15;15.05;;;12.90;;
635;SDS011;302;50.206;8.196;2022-11-06T03:52:43;15.10;;;12.50;;
635;SDS011;302;50.206;8.196;2022-11-06T03:55:12;14.85;;;12.15;;
635;SDS011;302;50.206;8.196;2022-11-06T03:57:42;13.98;;;12.15;;
635;SDS011;302;50.206;8.196;2022-11-06T04:00:10;13.18;;;11.85;;
635;SDS011;302;50.206;8.196;2022-11-06T04:02:36;13.00;;;11.60;;
635;SDS011;302;50.206;8.196;2022-11-06T04:05:08;14.57;;;11.80;;
635;SDS011;302;50.206;8.196;2022-11-06T04:07:42;12.02;;;10.80;;
635;SDS011;302;50.206;8.196;2022-11-06T04:10:27;12.63;;;11.45;;
635;SDS011;302;50.206;8.196;2022-11-06T04:13:12;11.48;;;10.32;;
635;SDS011;302;50.206;8.196;2022-11-06T04:15:56;12.90;;;11.60;;
635;SDS011;302;50.206;8.196;2022-11-06T04:18:21;15.83;;;11.13;;
635;SDS011;302;50.206;8.196;2022-11-06T04:20:53;12.80;;;10.60;;
635;SDS011;302;50.206;8.196;2022-11-06T04:23:43;13.82;;;10.80;;
635;SDS011;302;50.206;8.196;2022-11-06T04:26:32;11.18;;;9.00;;
635;SDS011;302;50.206;8.196;2022-11-06T04:29:11;12.45;;;11.10;;
635;SDS011;302;50.206;8.196;2022-11-06T04:31:44;16.40;;;11.55;;
635;SDS011;302;50.206;8.196;2022-11-06T04:34:17;13.35;;;12.05;;
635;SDS011;302;50.206;8.196;2022-11-06T04:36:45;14.52;;;12.18;;
635;SDS011;302;50.206;8.196;2022-11-06T04:39:15;15.00;;;12.35;;
635;SDS011;302;50.206;8.196;2022-11-06T04:41:48;15.20;;;12.70;;
635;SDS011;302;50.206;8.196;2022-11-06T04:44:27;17.23;;;12.10;;
635;SDS011;302;50.206;8.196;2022-11-06T04:46:55;15.63;;;11.95;;
635;SDS011;302;50.206;8.196;2022-11-06T04:49:21;13.43;;;11.80;;
635;SDS011;302;50.206;8.196;2022-11-06T04:51:47;14.63;;;13.02;;
635;SDS011;302;50.206;8.196;2022-11-06T04:54:13;13.30;;;11.90;;
635;SDS011;302;50.206;8.196;2022-11-06T04:56:38;15.23;;;11.50;;
635;SDS011;302;50.206;8.196;2022-11-06T04:59:04;13.30;;;11.37;;
635;SDS011;302;50.206;8.196;2022-11-06T05:01:29;14.37;;;10.83;;
635;SDS011;302;50.206;8.196;2022-11-06T05:03:54;16.98;;;12.10;;
635;SDS011;302;50.206;8.196;2022-11-06T05:06:19;13.60;;;11.77;;
635;SDS011;302;50.206;8.196;2022-11-06T05:08:44;14.73;;;11.90;;
635;SDS011;302;50.206;8.196;2022-11-06T05:11:10;16.50;;;13.67;;
635;SDS011;302;50.206;8.196;2022-11-06T05:13:35;15.07;;;11.93;;
635;SDS011;302;50.206;8.196;2022-11-06T05:16:02;17.92;;;12.27;;
635;SDS011;302;50.206;8.196;2022-11-06T05:18:27;13.67;;;12.03;;
635;SDS011;302;50.206;8.196;2022-11-06T05:20:52;18.30;;;13.60;;
635;SDS011;302;50.206;8.196;2022-11-06T05:23:38;15.55;;;11.55;;
635;SDS011;302;50.206;8.196;2022-11-06T05:26:03;13.40;;;10.73;;
635;SDS011;302;50.206;8.196;2022-11-06T05:28:29;13.90;;;11.50;;
635;SDS011;302;50.206;8.196;2022-11-06T05:30:54;13.40;;;11.83;;
635;SDS011;302;50.206;8.196;2022-11-06T05:33:19;13.43;;;10.98;;
635;SDS011;302;50.206;8.196;2022-11-06T05:35:44;12.90;;;11.35;;
635;SDS011;302;50.206;8.196;2022-11-06T05:38:09;11.45;;;10.07;;
635;SDS011;302;50.206;8.196;2022-11-06T05:40:34;12.83;;;10.73;;
635;SDS011;302;50.206;8.196;2022-11-06T05:42:59;12.68;;;11.43;;
635;SDS011;302;50.206;8.196;2022-11-06T05:45:25;12.83;;;11.50;;
635;SDS011;302;50.206;8.196;2022-11-06T05:47:50;12.10;;;10.80;;
635;SDS011;302;50.206;8.196;2022-11-06T05:50:15;14.27;;;12.77;;
635;SDS011;302;50.206;8.196;2022-11-06T05:52:41;11.57;;;10.37;;
635;SDS011;302;50.206;8.196;2022-11-06T05:55:06;12.57;;;11.33;;
635;SDS011;302;50.206;8.196;2022-11-06T05:57:31;12.30;;;10.70;;
635;SDS011;302;50.206;8.196;2022-11-06T05:59:56;14.27;;;10.98;;
635;SDS011;302;50.206;8.196;2022-11-06T06:02:21;12.07;;;9.95;;
635;SDS011;302;50.206;8.196;2022-11-06T06:04:47;12.13;;;10.23;;
635;SDS011;302;50.206;8.196;2022-11-06T06:07:12;10.90;;;9.80;;
635;SDS011;302;50.206;8.196;2022-11-06T06:09:37;11.17;;;10.07;;
635;SDS011;302;50.206;8.196;2022-11-06T06:12:02;12.53;;;11.23;;
635;SDS011;302;50.206;8.196;2022-11-06T06:14:27;12.53;;;10.97;;
635;SDS011;302;50.206;8.196;2022-11-06T06:16:52;10.98;;;9.88;;
635;SDS011;302;50.206;8.196;2022-11-06T06:19:18;12.57;;;10.38;;
635;SDS011;302;50.206;8.196;2022-11-06T06:21:43;11.60;;;10.03;;
635;SDS011;302;50.206;8.196;2022-11-06T06:24:08;12.63;;;10.05;;
635;SDS011;302;50.206;8.196;2022-11-06T06:26:33;11.03;;;9.70;;
635;SDS011;302;50.206;8.196;2022-11-06T06:28:58;11.47;;;9.97;;
635;SDS011;302;50.206;8.196;2022-11-06T06:31:23;11.03;;;9.90;;
635;SDS011;302;50.206;8.196;2022-11-06T06:33:49;10.20;;;9.20;;
635;SDS011;302;50.206;8.196;2022-11-06T06:36:14;10.10;;;8.80;;
635;SDS011;302;50.206;8.196;2022-11-06T06:38:39;10.40;;;9.30;;
635;SDS011;302;50.206;8.196;2022-11-06T06:41:05;11.17;;;9.47;;
635;SDS011;302;50.206;8.196;2022-11-06T06:43:30;10.43;;;8.50;;
635;SDS011;302;50.206;8.196;2022-11-06T06:45:57;10.13;;;8.20;;
635;SDS011;302;50.206;8.196;2022-11-06T06:48:22;9.55;;;8.57;;
635;SDS011;302;50.206;8.196;2022-11-06T06:50:47;9.80;;;8.55;;
635;SDS011;302;50.206;8.196;2022-11-06T06:53:13;12.75;;;8.98;;
635;SDS011;302;50.206;8.196;2022-11-06T06:55:38;8.10;;;7.40;;
635;SDS011;302;50.206;8.196;2022-11-06T06:58:04;10.77;;;7.75;;
635;SDS011;302;50.206;8.196;2022-11-06T07:00:29;8.73;;;7.83;;
635;SDS011;302;50.206;8.196;2022-11-06T07:02:54;9.65;;;8.15;;
635;SDS011;302;50.206;8.196;2022-11-06T07:05:20;9.05;;;7.53;;
635;SDS011;302;50.206;8.196;2022-11-06T07:07:45;10.07;;;8.07;;
635;SDS011;302;50.206;8.196;2022-11-06T07:10:10;9.17;;;8.17;;
635;SDS011;302;50.206;8.196;2022-11-06T07:12:35;10.27;;;7.27;;
635;SDS011;302;50.206;8.196;2022-11-06T07:15:00;8.15;;;7.20;;
635;SDS011;302;50.206;8.196;2022-11-06T07:17:26;7.57;;;6.88;;
635;SDS011;302;50.206;8.196;2022-11-06T07:19:51;7.03;;;6.20;;
635;SDS011;302;50.206;8.196;2022-11-06T07:22:16;7.03;;;6.32;;
635;SDS011;302;50.206;8.196;2022-11-06T07:24:41;7.28;;;6.45;;
635;SDS011;302;50.206;8.196;2022-11-06T07:27:07;6.87;;;6.27;;
635;SDS011;302;50.206;8.196;2022-11-06T07:29:32;9.20;;;6.53;;
635;SDS011;302;50.206;8.196;2022-11-06T07:31:57;10.07;;;8.27;;
635;SDS011;302;50.206;8.196;2022-11-06T07:34:22;7.97;;;6.90;;
635;SDS011;302;50.206;8.196;2022-11-06T07:36:47;8.60;;;7.53;;
635;SDS011;302;50.206;8.196;2022-11-06T07:39:13;9.03;;;8.13;;
635;SDS011;302;50.206;8.196;2022-11-06T07:41:38;8.00;;;7.30;;
635;SDS011;302;50.206;8.196;2022-11-06T07:44:03;7.95;;;7.15;;
635;SDS011;302;50.206;8.196;2022-11-06T07:46:28;8.70;;;7.90;;
635;SDS011;302;50.206;8.196;2022-11-06T07:48:53;10.10;;;7.50;;
635;SDS011;302;50.206;8.196;2022-11-06T07:51:19;11.23;;;7.30;;
635;SDS011;302;50.206;8.196;2022-11-06T07:53:44;12.10;;;8.13;;
635;SDS011;302;50.206;8.196;2022-11-06T07:56:09;8.93;;;8.20;;
635;SDS011;302;50.206;8.196;2022-11-06T07:58:34;11.67;;;9.37;;
635;SDS011;302;50.206;8.196;2022-11-06T08:00:59;8.87;;;8.00;;
635;SDS011;302;50.206;8.196;2022-11-06T08:03:25;30.47;;;27.47;;
635;SDS011;302;50.206;8.196;2022-11-06T08:05:50;28.57;;;26.00;;
635;SDS011;302;50.206;8.196;2022-11-06T08:08:16;15.17;;;12.70;;
635;SDS011;302;50.206;8.196;2022-11-06T08:10:41;11.50;;;10.40;;
635;SDS011;302;50.206;8.196;2022-11-06T08:13:11;14.60;;;9.13;;
635;SDS011;302;50.206;8.196;2022-11-06T08:15:36;9.57;;;8.77;;
635;SDS011;302;50.206;8.196;2022-11-06T08:18:02;8.73;;;7.95;;
635;SDS011;302;50.206;8.196;2022-11-06T08:20:27;7.90;;;7.20;;
635;SDS011;302;50.206;8.196;2022-11-06T08:22:56;9.80;;;8.90;;
635;SDS011;302;50.206;8.196;2022-11-06T08:25:22;10.07;;;7.75;;
635;SDS011;302;50.206;8.196;2022-11-06T08:27:47;8.63;;;7.83;;
635;SDS011;302;50.206;8.196;2022-11-06T08:30:12;8.77;;;7.28;;
635;SDS011;302;50.206;8.196;2022-11-06T08:32:37;8.73;;;6.77;;
635;SDS011;302;50.206;8.196;2022-11-06T08:35:02;8.00;;;6.10;;
635;SDS011;302;50.206;8.196;2022-11-06T08:37:28;7.73;;;7.03;;
635;SDS011;302;50.206;8.196;2022-11-06T08:39:53;9.37;;;8.37;;
635;SDS011;302;50.206;8.196;2022-11-06T08:42:18;8.63;;;7.13;;
635;SDS011;302;50.206;8.196;2022-11-06T08:44:43;6.07;;;5.63;;
635;SDS011;302;50.206;8.196;2022-11-06T08:47:08;7.40;;;6.70;;
635;SDS011;302;50.206;8.196;2022-11-06T08:49:33;6.78;;;6.05;;
635;SDS011;302;50.206;8.196;2022-11-06T08:51:58;6.60;;;6.00;;
635;SDS011;302;50.206;8.196;2022-11-06T08:54:24;6.60;;;5.70;;
635;SDS011;302;50.206;8.196;2022-11-06T08:56:49;5.60;;;5.10;;
635;SDS011;302;50.206;8.196;2022-11-06T08:59:14;5.97;;;5.37;;
635;SDS011;302;50.206;8.196;2022-11-06T09:01:39;5.93;;;5.10;;
635;SDS011;302;50.206;8.196;2022-11-06T09:04:04;9.90;;;5.67;;
635;SDS011;302;50.206;8.196;2022-11-06T09:06:30;5.70;;;5.20;;
635;SDS011;302;50.206;8.196;2022-11-06T09:08:55;6.93;;;6.00;;
635;SDS011;302;50.206;8.196;2022-11-06T09:11:20;5.27;;;4.83;;
635;SDS011;302;50.206;8.196;2022-11-06T09:13:46;7.53;;;6.10;;
635;SDS011;302;50.206;8.196;2022-11-06T09:16:11;7.53;;;6.07;;
635;SDS011;302;50.206;8.196;2022-11-06T09:18:36;8.50;;;5.60;;
635;SDS011;302;50.206;8.196;2022-11-06T09:21:01;5.33;;;4.93;;
635;SDS011;302;50.206;8.196;2022-11-06T09:23:26;5.90;;;5.37;;
635;SDS011;302;50.206;8.196;2022-11-06T09:25:51;6.90;;;6.13;;
635;SDS011;302;50.206;8.196;2022-11-06T09:28:17;6.40;;;5.30;;
635;SDS011;302;50.206;8.196;2022-11-06T09:30:42;7.47;;;6.90;;
635;SDS011;302;50.206;8.196;2022-11-06T09:33:07;6.25;;;5.65;;
635;SDS011;302;50.206;8.196;2022-11-06T09:35:33;6.47;;;5.87;;
635;SDS011;302;50.206;8.196;2022-11-06T09:38:02;6.80;;;5.80;;
635;SDS011;302;50.206;8.196;2022-11-06T09:43:01;9.35;;;7.70;;
635;SDS011;302;50.206;8.196;2022-11-06T09:45:28;6.60;;;6.05;;
635;SDS011;302;50.206;8.196;2022-11-06T09:47:59;7.25;;;6.60;;
635;SDS011;302;50.206;8.196;2022-11-06T09:50:28;6.20;;;5.60;;
635;SDS011;302;50.206;8.196;2022-11-06T09:55:40;8.27;;;7.38;;
635;SDS011;302;50.206;8.196;2022-11-06T09:58:17;8.95;;;8.02;;
635;SDS011;302;50.206;8.196;2022-11-06T10:00:44;9.27;;;8.38;;
635;SDS011;302;50.206;8.196;2022-11-06T10:05:35;11.40;;;9.40;;
635;SDS011;302;50.206;8.196;2022-11-06T10:08:46;12.50;;;11.18;;
635;SDS011;302;50.206;8.196;2022-11-06T10:16:13;13.00;;;11.20;;
635;SDS011;302;50.206;8.196;2022-11-06T10:19:03;14.63;;;12.85;;
635;SDS011;302;50.206;8.196;2022-11-06T10:21:35;14.82;;;13.20;;
635;SDS011;302;50.206;8.196;2022-11-06T10:24:07;12.75;;;11.45;;
635;SDS011;302;50.206;8.196;2022-11-06T10:26:36;14.05;;;12.65;;
635;SDS011;302;50.206;8.196;2022-11-06T10:34:14;14.35;;;12.85;;
635;SDS011;302;50.206;8.196;2022-11-06T10:36:42;13.30;;;12.00;;
635;SDS011;302;50.206;8.196;2022-11-06T10:39:11;14.13;;;12.73;;
635;SDS011;302;50.206;8.196;2022-11-06T10:41:37;16.48;;;14.85;;
635;SDS011;302;50.206;8.196;2022-11-06T10:44:09;15.47;;;13.93;;
635;SDS011;302;50.206;8.196;2022-11-06T10:46:38;16.60;;;15.00;;
635;SDS011;302;50.206;8.196;2022-11-06T10:49:12;16.77;;;15.20;;
635;SDS011;302;50.206;8.196;2022-11-06T10:54:12;16.17;;;14.63;;
635;SDS011;302;50.206;8.196;2022-11-06T10:59:15;11.15;;;10.10;;
635;SDS011;302;50.206;8.196;2022-11-06T11:01:40;15.93;;;13.77;;
635;SDS011;302;50.206;8.196;2022-11-06T11:04:05;15.15;;;13.65;;
635;SDS011;302;50.206;8.196;2022-11-06T11:11:54;13.35;;;11.57;;
635;SDS011;302;50.206;8.196;2022-11-06T11:14:25;12.32;;;11.02;;
635;SDS011;302;50.206;8.196;2022-11-06T11:16:55;11.27;;;10.18;;
635;SDS011;302;50.206;8.196;2022-11-06T11:19:43;11.95;;;10.85;;
635;SDS011;302;50.206;8.196;2022-11-06T11:24:57;11.98;;;10.27;;
635;SDS011;302;50.206;8.196;2022-11-06T11:27:23;12.05;;;10.95;;
635;SDS011;302;50.206;8.196;2022-11-06T11:29:49;10.77;;;9.67;;
635;SDS011;302;50.206;8.196;2022-11-06T11:32:15;9.67;;;8.40;;
635;SDS011;302;50.206;8.196;2022-11-06T11:34:45;9.07;;;8.27;;
635;SDS011;302;50.206;8.196;2022-11-06T11:37:20;10.25;;;9.23;;
635;SDS011;302;50.206;8.196;2022-11-06T11:39:46;9.00;;;8.23;;
635;SDS011;302;50.206;8.196;2022-11-06T11:42:15;10.43;;;8.27;;
635;SDS011;302;50.206;8.196;2022-11-06T11:44:40;8.82;;;7.93;;
635;SDS011;302;50.206;8.196;2022-11-06T11:47:18;9.00;;;7.50;;
635;SDS011;302;50.206;8.196;2022-11-06T11:49:43;7.55;;;6.82;;
635;SDS011;302;50.206;8.196;2022-11-06T11:52:10;6.70;;;6.00;;
635;SDS011;302;50.206;8.196;2022-11-06T11:54:36;7.38;;;6.55;;
635;SDS011;302;50.206;8.196;2022-11-06T11:57:05;6.87;;;6.20;;
635;SDS011;302;50.206;8.196;2022-11-06T11:59:33;5.72;;;5.20;;
635;SDS011;302;50.206;8.196;2022-11-06T12:02:09;7.63;;;6.05;;
635;SDS011;302;50.206;8.196;2022-11-06T12:04:40;7.13;;;5.95;;
635;SDS011;302;50.206;8.196;2022-11-06T12:07:06;6.80;;;6.10;;
635;SDS011;302;50.206;8.196;2022-11-06T12:09:42;6.82;;;6.20;;
635;SDS011;302;50.206;8.196;2022-11-06T12:12:17;7.10;;;6.40;;
635;SDS011;302;50.206;8.196;2022-11-06T12:14:43;6.45;;;5.82;;
635;SDS011;302;50.206;8.196;2022-11-06T12:17:10;6.50;;;5.87;;
635;SDS011;302;50.206;8.196;2022-11-06T12:19:38;10.88;;;9.98;;
635;SDS011;302;50.206;8.196;2022-11-06T12:22:06;6.60;;;5.95;;
635;SDS011;302;50.206;8.196;2022-11-06T12:24:37;5.80;;;5.30;;
635;SDS011;302;50.206;8.196;2022-11-06T12:27:05;6.80;;;6.20;;
635;SDS011;302;50.206;8.196;2022-11-06T12:29:35;6.38;;;5.88;;
635;SDS011;302;50.206;8.196;2022-11-06T12:32:05;6.57;;;5.97;;
635;SDS011;302;50.206;8.196;2022-11-06T12:34:37;9.18;;;6.50;;
635;SDS011;302;50.206;8.196;2022-11-06T12:37:17;6.70;;;6.10;;
635;SDS011;302;50.206;8.196;2022-11-06T12:39:48;6.70;;;5.95;;
635;SDS011;302;50.206;8.196;2022-11-06T12:42:16;7.55;;;6.40;;
635;SDS011;302;50.206;8.196;2022-11-06T12:44:44;6.20;;;5.55;;
635;SDS011;302;50.206;8.196;2022-11-06T12:47:23;7.47;;;6.72;;
635;SDS011;302;50.206;8.196;2022-11-06T12:52:27;7.05;;;6.45;;
635;SDS011;302;50.206;8.196;2022-11-06T13:02:21;7.75;;;7.05;;
635;SDS011;302;50.206;8.196;2022-11-06T13:04:59;7.25;;;6.50;;
635;SDS011;302;50.206;8.196;2022-11-06T13:07:29;7.97;;;7.22;;
635;SDS011;302;50.206;8.196;2022-11-06T13:12:51;10.85;;;7.40;;
635;SDS011;302;50.206;8.196;2022-11-06T13:15:35;7.60;;;6.90;;
635;SDS011;302;50.206;8.196;2022-11-06T13:20:53;8.63;;;7.82;;
635;SDS011;302;50.206;8.196;2022-11-06T13:23:24;9.68;;;7.10;;
635;SDS011;302;50.206;8.196;2022-11-06T13:25:52;7.55;;;6.80;;
635;SDS011;302;50.206;8.196;2022-11-06T13:30:47;8.27;;;6.55;;
635;SDS011;302;50.206;8.196;2022-11-06T13:33:15;7.05;;;6.38;;
635;SDS011;302;50.206;8.196;2022-11-06T13:35:41;7.82;;;7.13;;
635;SDS011;302;50.206;8.196;2022-11-06T13:38:08;7.40;;;6.80;;
635;SDS011;302;50.206;8.196;2022-11-06T13:40:38;7.05;;;6.45;;
635;SDS011;302;50.206;8.196;2022-11-06T13:43:10;6.90;;;6.30;;
635;SDS011;302;50.206;8.196;2022-11-06T13:45:40;7.18;;;6.57;;
635;SDS011;302;50.206;8.196;2022-11-06T13:50:57;6.25;;;5.72;;
635;SDS011;302;50.206;8.196;2022-11-06T13:55:58;6.33;;;5.77;;
635;SDS011;302;50.206;8.196;2022-11-06T14:06:01;7.15;;;6.55;;
635;SDS011;302;50.206;8.196;2022-11-06T14:08:37;6.85;;;6.20;;
635;SDS011;302;50.206;8.196;2022-11-06T14:11:04;6.18;;;5.68;;
635;SDS011;302;50.206;8.196;2022-11-06T14:13:31;5.90;;;5.45;;
635;SDS011;302;50.206;8.196;2022-11-06T14:16:01;6.60;;;6.00;;
635;SDS011;302;50.206;8.196;2022-11-06T14:18:26;6.10;;;5.60;;
635;SDS011;302;50.206;8.196;2022-11-06T14:21:24;6.90;;;6.20;;
635;SDS011;302;50.206;8.196;2022-11-06T14:26:11;6.03;;;5.53;;
635;SDS011;302;50.206;8.196;2022-11-06T14:28:40;6.78;;;6.18;;
635;SDS011;302;50.206;8.196;2022-11-06T14:31:06;6.57;;;5.97;;
635;SDS011;302;50.206;8.196;2022-11-06T14:36:17;5.65;;;5.18;;
635;SDS011;302;50.206;8.196;2022-11-06T14:38:50;7.30;;;6.63;;
635;SDS011;302;50.206;8.196;2022-11-06T14:43:59;6.75;;;5.75;;
635;SDS011;302;50.206;8.196;2022-11-06T14:46:25;6.57;;;5.97;;
635;SDS011;302;50.206;8.196;2022-11-06T14:48:52;7.72;;;6.93;;
635;SDS011;302;50.206;8.196;2022-11-06T14:51:26;5.65;;;5.20;;
635;SDS011;302;50.206;8.196;2022-11-06T14:53:53;6.47;;;5.82;;
635;SDS011;302;50.206;8.196;2022-11-06T14:56:19;7.15;;;6.45;;
635;SDS011;302;50.206;8.196;2022-11-06T14:58:49;7.35;;;6.25;;
635;SDS011;302;50.206;8.196;2022-11-06T15:01:23;6.93;;;6.32;;
635;SDS011;302;50.206;8.196;2022-11-06T15:03:50;6.78;;;6.20;;
635;SDS011;302;50.206;8.196;2022-11-06T15:11:42;8.25;;;7.55;;
635;SDS011;302;50.206;8.196;2022-11-06T15:16:22;8.35;;;7.07;;
635;SDS011;302;50.206;8.196;2022-11-06T15:18:49;6.60;;;6.10;;
635;SDS011;302;50.206;8.196;2022-11-06T15:21:16;7.63;;;6.80;;
635;SDS011;302;50.206;8.196;2022-11-06T15:23:54;7.32;;;6.63;;
635;SDS011;302;50.206;8.196;2022-11-06T15:26:24;7.57;;;6.88;;
635;SDS011;302;50.206;8.196;2022-11-06T15:28:56;6.70;;;5.95;;
635;SDS011;302;50.206;8.196;2022-11-06T15:31:25;6.20;;;5.60;;
635;SDS011;302;50.206;8.196;2022-11-06T15:36:17;7.85;;;6.95;;
635;SDS011;302;50.206;8.196;2022-11-06T15:38:43;8.20;;;7.05;;
635;SDS011;302;50.206;8.196;2022-11-06T15:41:14;10.90;;;8.07;;
635;SDS011;302;50.206;8.196;2022-11-06T15:43:40;8.15;;;7.45;;
635;SDS011;302;50.206;8.196;2022-11-06T15:48:42;7.90;;;7.20;;
635;SDS011;302;50.206;8.196;2022-11-06T15:51:20;8.80;;;8.00;;
635;SDS011;302;50.206;8.196;2022-11-06T15:53:46;8.68;;;7.32;;
635;SDS011;302;50.206;8.196;2022-11-06T15:56:11;6.90;;;6.30;;
635;SDS011;302;50.206;8.196;2022-11-06T15:58:38;8.18;;;7.38;;
635;SDS011;302;50.206;8.196;2022-11-06T16:01:04;7.83;;;7.03;;
635;SDS011;302;50.206;8.196;2022-11-06T16:03:30;7.70;;;7.00;;
635;SDS011;302;50.206;8.196;2022-11-06T16:05:56;8.35;;;7.50;;
635;SDS011;302;50.206;8.196;2022-11-06T16:08:23;8.57;;;7.88;;
635;SDS011;302;50.206;8.196;2022-11-06T16:10:49;9.07;;;8.27;;
635;SDS011;302;50.206;8.196;2022-11-06T16:13:16;8.67;;;7.87;;
635;SDS011;302;50.206;8.196;2022-11-06T16:18:14;9.43;;;8.25;;
635;SDS011;302;50.206;8.196;2022-11-06T16:20:44;8.30;;;7.50;;
635;SDS011;302;50.206;8.196;2022-11-06T16:23:11;8.68;;;7.85;;
635;SDS011;302;50.206;8.196;2022-11-06T16:25:37;8.20;;;7.50;;
635;SDS011;302;50.206;8.196;2022-11-06T16:28:03;7.60;;;6.90;;
635;SDS011;302;50.206;8.196;2022-11-06T16:30:28;7.70;;;7.00;;
635;SDS011;302;50.206;8.196;2022-11-06T16:32:57;7.90;;;7.30;;
635;SDS011;302;50.206;8.196;2022-11-06T16:35:32;9.70;;;8.80;;
635;SDS011;302;50.206;8.196;2022-11-06T16:43:13;9.18;;;8.38;;
635;SDS011;302;50.206;8.196;2022-11-06T16:46:01;9.20;;;8.30;;
635;SDS011;302;50.206;8.196;2022-11-06T16:48:26;8.88;;;8.07;;
635;SDS011;302;50.206;8.196;2022-11-06T16:50:55;10.43;;;9.07;;
635;SDS011;302;50.206;8.196;2022-11-06T16:53:25;8.80;;;8.00;;
635;SDS011;302;50.206;8.196;2022-11-06T16:55:52;9.25;;;8.40;;
635;SDS011;302;50.206;8.196;2022-11-06T16:58:18;9.23;;;8.32;;
635;SDS011;302;50.206;8.196;2022-11-06T17:00:43;9.57;;;8.67;;
635;SDS011;302;50.206;8.196;2022-11-06T17:03:17;9.37;;;8.47;;
635;SDS011;302;50.206;8.196;2022-11-06T17:05:48;9.27;;;8.48;;
635;SDS011;302;50.206;8.196;2022-11-06T17:10:46;9.48;;;8.68;;
635;SDS011;302;50.206;8.196;2022-11-06T17:13:28;8.75;;;8.05;;
635;SDS011;302;50.206;8.196;2022-11-06T17:15:59;9.73;;;8.75;;
635;SDS011;302;50.206;8.196;2022-11-06T17:18:28;8.50;;;7.80;;
635;SDS011;302;50.206;8.196;2022-11-06T17:20:55;9.73;;;8.73;;
635;SDS011;302;50.206;8.196;2022-11-06T17:23:20;10.38;;;9.38;;